createdAt,value
2022-09-24T00:02:40.199Z,99923.25
2022-09-24T00:07:44.143Z,99926.56
2022-09-24T00:12:47.791Z,99927.56
2022-09-24T00:17:50.371Z,99927.66
2022-09-24T00:22:54.331Z,99930.59
2022-09-24T00:27:57.059Z,99919.31
2022-09-24T00:32:59.638Z,99922.22
2022-09-24T00:38:05.833Z,99910.84
2022-09-24T00:43:29.919Z,99911.22
2022-09-24T00:48:34.133Z,99907.88
2022-09-24T00:53:38.430Z,99906.31
2022-09-24T00:58:41.233Z,99907.41
2022-09-24T01:03:43.824Z,99903.13
2022-09-24T01:08:48.373Z,99892.56
2022-09-24T01:14:04.874Z,99894.66
2022-09-24T01:19:24.486Z,99893.91
2022-09-24T01:24:47.114Z,99881.69
2022-09-24T01:30:03.165Z,99884.59
2022-09-24T01:35:13.359Z,99879.56
2022-09-24T01:40:16.991Z,99883.38
2022-09-24T01:45:21.908Z,99880.91
2022-09-24T01:50:26.049Z,99877.50
2022-09-24T01:55:34.057Z,99872.34
2022-09-24T02:00:42.448Z,99869.91
2022-09-24T02:05:51.022Z,99877.22
2022-09-24T02:10:58.784Z,99867.56
2022-09-24T02:16:06.770Z,99871.34
2022-09-24T02:21:12.365Z,99860.81
2022-09-24T02:26:15.313Z,99860.94
2022-09-24T02:31:25.310Z,99854.78
2022-09-24T02:36:29.646Z,99855.88
2022-09-24T02:41:33.088Z,99849.63
2022-09-24T02:46:37.024Z,99847.91
2022-09-24T02:51:39.716Z,99842.75
2022-09-24T02:56:42.411Z,99839.22
2022-09-24T03:01:46.727Z,99840.19
2022-09-24T03:06:49.503Z,99836.75
2022-09-24T03:11:52.354Z,99842.13
2022-09-24T03:16:56.267Z,99835.16
2022-09-24T03:21:58.908Z,99839.69
2022-09-24T03:27:01.648Z,99833.53
2022-09-24T03:32:05.990Z,99826.44
2022-09-24T03:37:08.822Z,99825.72
2022-09-24T03:42:11.407Z,99822.19
2022-09-24T03:47:15.323Z,99814.22
2022-09-24T03:52:18.105Z,99807.09
2022-09-24T03:57:20.995Z,99805.38
2022-09-24T04:02:24.966Z,99792.03
2022-09-24T04:07:27.549Z,99789.47
2022-09-24T04:12:31.123Z,99786.88
2022-09-24T04:17:35.284Z,99783.31
2022-09-24T04:22:39.232Z,99788.72
2022-09-24T04:27:41.779Z,99782.47
2022-09-24T04:32:45.973Z,99778.06
2022-09-24T04:37:49.074Z,99778.19
2022-09-24T04:42:52.500Z,99780.91
2022-09-24T04:47:57.339Z,99781.00
2022-09-24T04:53:00.589Z,99780.13
2022-09-24T04:58:03.195Z,99788.34
2022-09-24T05:03:07.246Z,99785.78
2022-09-24T05:08:10.020Z,99795.78
2022-09-24T05:13:12.695Z,99802.06
2022-09-24T05:18:16.671Z,99792.25
2022-09-24T05:23:19.285Z,99796.06
2022-09-24T05:28:22.251Z,99800.59
2022-09-24T05:33:26.212Z,99797.13
2022-09-24T05:38:29.869Z,99807.06
2022-09-24T05:43:32.511Z,99815.97
2022-09-24T05:48:36.596Z,99816.97
2022-09-24T05:53:39.205Z,99830.44
2022-09-24T05:58:41.796Z,99829.56
2022-09-24T06:03:45.900Z,99825.19
2022-09-24T06:08:48.492Z,99826.88
2022-09-24T06:13:51.372Z,99825.19
2022-09-24T06:18:55.294Z,99819.78
2022-09-24T06:23:57.969Z,99817.09
2022-09-24T06:29:04.669Z,99820.78
2022-09-24T06:34:09.744Z,99806.31
2022-09-24T06:39:12.420Z,99806.31
2022-09-24T06:44:15.075Z,99796.41
2022-09-24T06:49:19.225Z,99794.56
2022-09-24T06:54:22.341Z,99795.41
2022-09-24T06:59:24.985Z,99806.09
2022-09-24T07:04:28.870Z,99804.00
2022-09-24T07:09:31.687Z,99802.16
2022-09-24T07:14:34.255Z,99806.56
2022-09-24T07:19:38.436Z,99811.88
2022-09-24T07:24:41.478Z,99809.16
2022-09-24T07:29:44.208Z,99819.19
2022-09-24T07:34:48.411Z,99819.19
2022-09-24T07:39:51.045Z,99826.69
2022-09-24T07:44:53.700Z,99828.63
2022-09-24T07:49:57.630Z,99828.44
2022-09-24T07:55:00.360Z,99844.03
2022-09-24T08:00:03.333Z,99835.75
2022-09-24T08:05:16.575Z,99830.25
2022-09-24T08:10:19.440Z,99825.56
2022-09-24T08:15:22.734Z,99826.69
2022-09-24T08:20:26.900Z,99820.31
2022-09-24T08:25:29.557Z,99826.22
2022-09-24T08:30:33.284Z,99831.47
2022-09-24T08:35:39.923Z,99838.34
2022-09-24T08:40:46.932Z,99831.00
2022-09-24T08:46:14.282Z,99835.91
2022-09-24T08:51:21.061Z,99843.53
2022-09-24T08:56:27.769Z,99837.16
2022-09-24T09:01:40.618Z,99840.22
2022-09-24T09:06:57.247Z,99837.69
2022-09-24T09:12:03.670Z,99835.50
2022-09-24T09:17:18.282Z,99828.78
2022-09-24T09:22:26.279Z,99826.72
2022-09-24T09:27:29.722Z,99819.22
2022-09-24T09:32:47.346Z,99822.53
2022-09-24T09:37:59.626Z,99820.56
2022-09-24T09:43:03.887Z,99817.66
2022-09-24T09:48:12.643Z,99812.88
2022-09-24T09:53:25.212Z,99817.16
2022-09-24T09:58:29.891Z,99813.75
2022-09-24T10:03:34.904Z,99814.69
2022-09-24T10:08:40.163Z,99816.44
2022-09-24T10:13:42.818Z,99816.97
2022-09-24T10:18:48.680Z,99810.59
2022-09-24T10:23:52.853Z,99809.97
2022-09-24T10:29:09.590Z,99802.38
2022-09-24T10:34:22.423Z,99815.72
2022-09-24T10:39:26.585Z,99810.22
2022-09-24T10:44:36.236Z,99818.19
2022-09-24T10:49:55.285Z,99806.28
2022-09-24T10:55:11.880Z,99802.84
2022-09-24T11:00:20.005Z,99804.94
2022-09-24T11:05:23.620Z,99804.94
2022-09-24T11:10:44.421Z,99806.41
2022-09-24T11:16:10.494Z,99795.38
2022-09-24T11:21:27.595Z,99793.16
2022-09-24T11:26:42.534Z,99796.09
2022-09-24T11:31:55.403Z,99784.34
2022-09-24T11:37:12.947Z,99785.94
2022-09-24T11:42:25.211Z,99781.13
2022-09-24T11:47:41.724Z,99771.94
2022-09-24T11:52:49.010Z,99781.00
2022-09-24T11:57:58.522Z,99781.63
2022-09-24T12:03:07.323Z,99773.16
2022-09-24T12:08:13.777Z,99761.00
2022-09-24T12:13:24.049Z,99765.13
2022-09-24T12:18:30.951Z,99764.97
2022-09-24T12:23:39.103Z,99763.69
2022-09-24T12:29:10.734Z,99755.66
2022-09-24T12:34:24.647Z,99747.03
2022-09-24T12:39:32.344Z,99750.81
2022-09-24T12:44:45.337Z,99750.56
2022-09-24T12:49:55.718Z,99751.72
2022-09-24T12:55:02.133Z,99749.50
2022-09-24T13:00:38.335Z,99737.53
2022-09-24T13:05:49.487Z,99727.94
2022-09-24T13:10:56.315Z,99723.44
2022-09-24T13:16:04.529Z,99730.75
2022-09-24T13:21:10.099Z,99713.19
2022-09-24T13:26:26.764Z,99707.34
2022-09-24T13:31:48.813Z,99713.09
2022-09-24T13:36:58.487Z,99704.84
2022-09-24T13:42:08.334Z,99712.69
2022-09-24T13:47:20.853Z,99723.16
2022-09-24T13:52:32.151Z,99723.06
2022-09-24T13:57:44.212Z,99719.47
2022-09-24T14:02:58.254Z,99708.38
2022-09-24T14:08:05.823Z,99701.41
2022-09-24T14:13:19.110Z,99705.81
2022-09-24T14:18:23.424Z,99705.53
2022-09-24T14:23:31.191Z,99700.09
2022-09-24T14:28:35.151Z,99703.56
2022-09-24T14:33:40.934Z,99707.81
2022-09-24T14:38:53.906Z,99704.09
2022-09-24T14:44:02.200Z,99701.41
2022-09-24T14:49:07.658Z,99694.88
2022-09-24T14:54:22.719Z,99700.13
2022-09-24T14:59:31.040Z,99706.69
2022-09-24T15:04:35.450Z,99701.69
2022-09-24T15:09:38.254Z,99708.41
2022-09-24T15:14:40.910Z,99706.41
2022-09-24T15:19:45.897Z,99709.13
2022-09-24T15:24:48.560Z,99707.25
2022-09-24T15:29:51.324Z,99704.41
2022-09-24T15:34:56.606Z,99706.00
2022-09-24T15:40:05.915Z,99698.16
2022-09-24T15:45:16.112Z,99698.72
2022-09-24T15:50:21.437Z,99700.28
2022-09-24T15:55:24.507Z,99703.53
2022-09-24T16:00:27.209Z,99696.44
2022-09-24T16:05:31.152Z,99707.25
2022-09-24T16:10:33.751Z,99699.88
2022-09-24T16:15:36.797Z,99703.16
2022-09-24T16:20:41.995Z,99703.00
2022-09-24T16:25:55.591Z,99704.00
2022-09-24T16:30:58.917Z,99708.13
2022-09-24T16:36:07.127Z,99710.97
2022-09-24T16:41:10.547Z,99711.03
2022-09-24T16:46:17.893Z,99716.00
2022-09-24T16:51:24.012Z,99713.34
2022-09-24T16:56:27.126Z,99718.63
2022-09-24T17:01:29.939Z,99722.63
2022-09-24T17:06:34.250Z,99719.22
2022-09-24T17:11:39.275Z,99715.94
2022-09-24T17:16:43.193Z,99712.81
2022-09-24T17:21:50.058Z,99709.56
2022-09-24T17:26:54.046Z,99716.53
2022-09-24T17:31:56.747Z,99709.41
2022-09-24T17:37:00.682Z,99712.69
2022-09-24T17:42:03.340Z,99723.50
2022-09-24T17:47:06.759Z,99726.22
2022-09-24T17:52:13.522Z,99723.38
2022-09-24T17:57:16.248Z,99727.34
2022-09-24T18:02:19.031Z,99730.63
2022-09-24T18:07:24.768Z,99730.63
2022-09-24T18:12:27.410Z,99730.06
2022-09-24T18:17:30.060Z,99743.88
2022-09-24T18:22:34.060Z,99736.75
2022-09-24T18:27:37.932Z,99738.31
2022-09-24T18:32:40.630Z,99745.31
2022-09-24T18:37:44.689Z,99744.44
2022-09-24T18:42:47.409Z,99745.16
2022-09-24T18:47:50.091Z,99748.03
2022-09-24T18:52:54.105Z,99749.72
2022-09-24T18:57:57.442Z,99746.72
2022-09-24T19:03:00.443Z,99746.72
2022-09-24T19:08:04.768Z,99741.31
2022-09-24T19:13:07.661Z,99742.31
2022-09-24T19:18:12.883Z,99742.63
2022-09-24T19:23:17.446Z,99741.72
2022-09-24T19:28:20.049Z,99742.72
2022-09-24T19:33:23.258Z,99741.19
2022-09-24T19:38:29.835Z,99735.75
2022-09-24T19:43:33.265Z,99733.22
2022-09-24T19:48:38.382Z,99741.72
2022-09-24T19:53:43.008Z,99740.88
2022-09-24T19:58:46.530Z,99742.63
2022-09-24T20:03:49.643Z,99733.75
2022-09-24T20:08:53.814Z,99736.19
2022-09-24T20:13:57.061Z,99743.16
2022-09-24T20:18:59.763Z,99737.72
2022-09-24T20:24:06.146Z,99735.19
2022-09-24T20:29:10.112Z,99732.19
2022-09-24T20:34:12.758Z,99734.19
2022-09-24T20:39:16.895Z,99732.63
2022-09-24T20:44:21.432Z,99741.75
2022-09-24T20:49:24.778Z,99736.88
2022-09-24T20:54:29.343Z,99746.59
2022-09-24T20:59:31.962Z,99744.88
2022-09-24T21:04:35.213Z,99744.03
2022-09-24T21:09:39.310Z,99746.75
2022-09-24T21:14:42.069Z,99746.84
2022-09-24T21:19:44.653Z,99748.00
2022-09-24T21:24:49.299Z,99745.00
2022-09-24T21:29:51.876Z,99754.25
2022-09-24T21:34:54.494Z,99756.50
2022-09-24T21:39:58.435Z,99754.22
2022-09-24T21:45:01.059Z,99757.22
2022-09-24T21:50:03.711Z,99750.38
2022-09-24T21:55:11.017Z,99760.63
2022-09-24T22:00:14.963Z,99754.16
2022-09-24T22:05:19.701Z,99750.75
2022-09-24T22:10:23.825Z,99756.69
2022-09-24T22:15:26.465Z,99750.56
2022-09-24T22:20:29.308Z,99743.59
2022-09-24T22:25:33.395Z,99747.28
2022-09-24T22:30:35.964Z,99741.00
2022-09-24T22:35:48.998Z,99750.97
2022-09-24T22:40:53.134Z,99748.41
2022-09-24T22:45:58.111Z,99748.69
2022-09-24T22:51:00.881Z,99750.50
2022-09-24T22:56:07.261Z,99750.66
2022-09-24T23:01:12.343Z,99749.81
2022-09-24T23:06:14.985Z,99742.69
2022-09-24T23:11:20.941Z,99745.66
2022-09-24T23:16:25.495Z,99753.19
2022-09-24T23:21:31.159Z,99754.75
2022-09-24T23:26:35.189Z,99754.91
2022-09-24T23:31:38.500Z,99751.34
2022-09-24T23:36:41.156Z,99752.47
2022-09-24T23:41:45.292Z,99754.91
2022-09-24T23:46:47.841Z,99743.38
2022-09-24T23:51:50.410Z,99735.28
2022-09-24T23:56:54.371Z,99740.22
